createdAt,value
2018-06-23T00:01:13.047Z,63.69
2018-06-23T00:03:41.096Z,64.11
2018-06-23T00:06:09.141Z,63.67
2018-06-23T00:08:37.297Z,63.93
2018-06-23T00:11:05.352Z,63.62
2018-06-23T00:13:33.412Z,63.54
2018-06-23T00:16:01.464Z,64.07
2018-06-23T00:18:29.516Z,64.21
2018-06-23T00:20:57.553Z,63.91
2018-06-23T00:23:25.604Z,64.69
2018-06-23T00:25:59.200Z,64.09
2018-06-23T00:28:27.278Z,64.49
2018-06-23T00:30:55.320Z,64.13
2018-06-23T00:33:23.372Z,64.25
2018-06-23T00:35:51.420Z,63.88
2018-06-23T00:38:19.447Z,64.04
2018-06-23T00:40:47.499Z,64.22
2018-06-23T00:43:15.543Z,64.48
2018-06-23T00:45:43.593Z,64.42
2018-06-23T00:48:11.640Z,64.62
2018-06-23T00:50:39.698Z,64.60
2018-06-23T00:53:07.740Z,64.98
2018-06-23T00:55:35.789Z,64.70
2018-06-23T00:58:03.816Z,64.71
2018-06-23T01:00:31.859Z,64.73
2018-06-23T01:02:59.916Z,65.08
2018-06-23T01:05:27.972Z,64.68
2018-06-23T01:07:56.018Z,65.35
2018-06-23T01:10:24.061Z,65.25
2018-06-23T01:12:52.124Z,64.87
2018-06-23T01:15:20.220Z,65.17
2018-06-23T01:17:48.259Z,64.75
2018-06-23T01:20:16.302Z,65.54
2018-06-23T01:22:44.341Z,66.62
2018-06-23T01:25:12.413Z,67.43
2018-06-23T01:27:40.439Z,68.27
2018-06-23T01:30:08.845Z,67.90
2018-06-23T01:32:36.904Z,68.61
2018-06-23T01:35:04.959Z,69.32
2018-06-23T01:37:33.036Z,68.99
2018-06-23T01:40:01.084Z,69.26
2018-06-23T01:42:29.128Z,69.99
2018-06-23T01:44:57.187Z,70.55
2018-06-23T01:47:25.223Z,70.79
2018-06-23T01:49:53.296Z,70.90
2018-06-23T01:52:21.339Z,70.27
2018-06-23T01:54:49.385Z,70.70
2018-06-23T01:57:17.443Z,71.33
2018-06-23T01:59:45.505Z,71.72
2018-06-23T02:02:13.551Z,72.64
2018-06-23T02:04:41.579Z,72.32
2018-06-23T02:07:09.628Z,73.17
2018-06-23T02:09:37.679Z,74.02
2018-06-23T02:12:05.732Z,73.73
2018-06-23T02:14:39.207Z,73.32
2018-06-23T02:17:12.751Z,74.04
2018-06-23T02:19:46.265Z,74.54
2018-06-23T02:22:19.765Z,73.86
2018-06-23T02:24:53.220Z,74.35
2018-06-23T02:27:26.772Z,73.97
2018-06-23T02:30:00.255Z,74.52
2018-06-23T02:32:33.753Z,74.41
2018-06-23T02:35:05.433Z,74.88
2018-06-23T02:37:35.352Z,75.17
2018-06-23T02:40:03.514Z,75.09
2018-06-23T02:42:31.591Z,75.39
2018-06-23T02:44:59.668Z,75.03
2018-06-23T02:47:27.726Z,75.71
2018-06-23T02:49:57.329Z,75.42
2018-06-23T02:52:25.364Z,75.08
2018-06-23T02:54:53.404Z,75.30
2018-06-23T02:57:21.519Z,75.17
2018-06-23T02:59:49.562Z,75.46
2018-06-23T03:02:17.616Z,75.16
2018-06-23T03:04:45.704Z,75.69
2018-06-23T03:07:13.767Z,75.54
2018-06-23T03:09:41.805Z,75.29
2018-06-23T03:12:09.844Z,75.75
2018-06-23T03:14:37.893Z,75.85
2018-06-23T03:17:10.439Z,75.70
2018-06-23T03:19:38.484Z,75.52
2018-06-23T03:22:06.527Z,76.04
2018-06-23T03:24:34.576Z,75.93
2018-06-23T03:27:02.626Z,76.34
2018-06-23T03:29:30.709Z,75.89
2018-06-23T03:31:58.743Z,76.10
2018-06-23T03:34:26.803Z,76.60
2018-06-23T03:36:54.844Z,76.17
2018-06-23T03:39:22.895Z,76.15
2018-06-23T03:41:50.952Z,76.14
2018-06-23T03:44:18.997Z,76.10
2018-06-23T03:46:47.048Z,76.10
2018-06-23T03:49:15.080Z,76.49
2018-06-23T03:51:43.156Z,76.19
2018-06-23T03:54:11.200Z,76.51
2018-06-23T03:56:39.276Z,76.53
2018-06-23T03:59:07.321Z,76.52
2018-06-23T04:01:35.364Z,76.42
2018-06-23T04:04:03.400Z,76.76
2018-06-23T04:06:31.435Z,76.75
2018-06-23T04:08:59.471Z,76.29
2018-06-23T04:11:27.533Z,76.44
2018-06-23T04:13:55.564Z,76.89
2018-06-23T04:16:23.595Z,76.61
2018-06-23T04:18:56.535Z,76.50
2018-06-23T04:21:24.833Z,76.29
2018-06-23T04:23:52.876Z,76.39
2018-06-23T04:26:20.960Z,76.40
2018-06-23T04:28:49.028Z,76.66
2018-06-23T04:31:17.071Z,76.26
2018-06-23T04:33:45.279Z,76.02
2018-06-23T04:36:13.648Z,75.49
2018-06-23T04:38:41.700Z,75.59
2018-06-23T04:41:09.743Z,75.56
2018-06-23T04:43:37.847Z,76.10
2018-06-23T04:46:05.949Z,75.07
2018-06-23T04:48:33.999Z,75.56
2018-06-23T04:51:02.108Z,75.73
2018-06-23T04:53:30.281Z,75.48
2018-06-23T04:55:58.381Z,75.37
2018-06-23T04:58:26.415Z,75.49
2018-06-23T05:00:54.463Z,74.74
2018-06-23T05:03:22.506Z,75.48
2018-06-23T05:05:50.548Z,75.36
2018-06-23T05:08:18.593Z,75.46
2018-06-23T05:10:46.628Z,74.83
2018-06-23T05:13:14.667Z,75.37
2018-06-23T05:15:42.691Z,75.29
2018-06-23T05:18:10.733Z,75.30
2018-06-23T05:20:38.783Z,74.45
2018-06-23T05:23:06.884Z,73.75
2018-06-23T05:25:34.919Z,73.64
2018-06-23T05:28:02.951Z,73.84
2018-06-23T05:30:31.183Z,74.02
2018-06-23T05:32:59.236Z,73.83
2018-06-23T05:35:27.281Z,74.07
2018-06-23T05:37:55.326Z,74.06
2018-06-23T05:40:23.347Z,73.92
2018-06-23T05:42:51.396Z,73.93
2018-06-23T05:45:19.460Z,73.86
2018-06-23T05:47:47.540Z,73.82
2018-06-23T05:50:15.587Z,73.29
2018-06-23T05:52:43.641Z,73.12
2018-06-23T05:55:11.669Z,73.14
2018-06-23T05:57:39.704Z,72.81
2018-06-23T06:00:07.744Z,72.32
2018-06-23T06:02:35.784Z,72.27
2018-06-23T06:05:03.891Z,71.76
2018-06-23T06:07:31.967Z,71.95
2018-06-23T06:10:00.011Z,71.47
2018-06-23T06:12:28.052Z,71.94
2018-06-23T06:14:56.120Z,71.00
2018-06-23T06:17:27.741Z,70.33
2018-06-23T06:19:58.093Z,70.74
2018-06-23T06:22:27.345Z,70.68
2018-06-23T06:24:55.691Z,70.96
2018-06-23T06:27:23.760Z,70.19
2018-06-23T06:29:52.451Z,70.22
2018-06-23T06:32:20.523Z,70.16
2018-06-23T06:34:48.579Z,70.15
2018-06-23T06:37:16.638Z,69.30
2018-06-23T06:39:45.208Z,68.51
2018-06-23T06:42:13.336Z,68.13
2018-06-23T06:44:41.451Z,68.21
2018-06-23T06:47:09.796Z,67.87
2018-06-23T06:49:37.867Z,67.64
2018-06-23T06:52:06.039Z,66.92
2018-06-23T06:54:34.253Z,65.89
2018-06-23T06:57:02.298Z,66.13
2018-06-23T06:59:30.334Z,66.33
2018-06-23T07:01:58.386Z,66.33
2018-06-23T07:04:26.428Z,65.53
2018-06-23T07:06:54.499Z,66.23
2018-06-23T07:09:22.544Z,65.81
2018-06-23T07:11:50.584Z,64.84
2018-06-23T07:14:18.634Z,64.31
2018-06-23T07:16:46.668Z,64.41
2018-06-23T07:19:14.708Z,62.55
2018-06-23T07:21:42.741Z,62.93
2018-06-23T07:24:10.840Z,62.66
2018-06-23T07:26:38.829Z,62.41
2018-06-23T07:29:07.456Z,62.89
2018-06-23T07:31:35.572Z,62.17
2018-06-23T07:34:03.647Z,61.61
2018-06-23T07:36:31.677Z,61.92
2018-06-23T07:39:00.152Z,62.17
2018-06-23T07:41:28.176Z,62.01
2018-06-23T07:43:56.220Z,62.78
2018-06-23T07:46:24.248Z,61.72
2018-06-23T07:48:52.332Z,61.76
2018-06-23T07:51:20.385Z,62.26
2018-06-23T07:53:48.436Z,63.53
2018-06-23T07:56:16.526Z,64.64
2018-06-23T07:58:44.528Z,65.53
2018-06-23T08:01:12.578Z,65.41
2018-06-23T08:03:40.624Z,65.62
2018-06-23T08:06:08.681Z,65.17
2018-06-23T08:08:36.732Z,64.89
2018-06-23T08:11:04.792Z,65.09
2018-06-23T08:13:32.843Z,64.90
2018-06-23T08:16:00.922Z,64.15
2018-06-23T08:18:29.076Z,63.06
2018-06-23T08:20:57.100Z,62.40
2018-06-23T08:23:25.180Z,63.21
2018-06-23T08:25:53.239Z,62.20
2018-06-23T08:28:21.288Z,62.44
2018-06-23T08:30:49.410Z,62.01
2018-06-23T08:33:17.416Z,62.49
2018-06-23T08:35:45.475Z,61.90
2018-06-23T08:38:13.562Z,61.31
2018-06-23T08:40:41.968Z,60.92
2018-06-23T08:43:10.004Z,59.78
2018-06-23T08:45:38.084Z,59.27
2018-06-23T08:48:06.284Z,58.14
2018-06-23T08:50:34.444Z,55.76
2018-06-23T08:53:02.529Z,56.17
2018-06-23T08:55:30.679Z,55.83
2018-06-23T08:57:58.732Z,56.17
2018-06-23T09:00:26.791Z,56.39
2018-06-23T09:02:54.831Z,55.05
2018-06-23T09:05:22.966Z,54.79
2018-06-23T09:07:51.016Z,54.85
2018-06-23T09:10:19.097Z,55.36
2018-06-23T09:12:47.244Z,55.29
2018-06-23T09:15:15.712Z,54.97
2018-06-23T09:17:43.979Z,55.34
2018-06-23T09:20:12.050Z,55.84
2018-06-23T09:22:40.080Z,55.24
2018-06-23T09:25:08.167Z,54.61
2018-06-23T09:27:36.219Z,54.80
2018-06-23T09:30:04.634Z,55.27
2018-06-23T09:32:32.751Z,55.26
2018-06-23T09:35:00.752Z,52.37
2018-06-23T09:37:28.816Z,52.59
2018-06-23T09:39:56.860Z,51.76
2018-06-23T09:42:25.026Z,52.62
2018-06-23T09:44:53.068Z,53.07
2018-06-23T09:47:21.196Z,52.99
2018-06-23T09:49:49.248Z,52.80
2018-06-23T09:52:17.292Z,53.04
2018-06-23T09:54:45.331Z,52.88
2018-06-23T09:57:13.800Z,53.24
2018-06-23T09:59:42.949Z,53.23
2018-06-23T10:02:17.215Z,52.92
2018-06-23T10:04:46.767Z,53.39
2018-06-23T10:07:15.007Z,53.46
2018-06-23T10:09:43.456Z,55.49
2018-06-23T10:12:11.509Z,56.39
2018-06-23T10:14:39.575Z,65.39
2018-06-23T10:17:07.645Z,64.76
2018-06-23T10:19:35.702Z,62.30
2018-06-23T10:22:03.776Z,61.40
2018-06-23T10:24:31.844Z,59.13
2018-06-23T10:26:59.896Z,58.72
2018-06-23T10:29:27.957Z,59.38
2018-06-23T10:31:56.012Z,59.62
2018-06-23T10:34:24.057Z,58.12
2018-06-23T10:36:52.112Z,54.39
2018-06-23T10:39:20.152Z,55.26
2018-06-23T10:41:48.201Z,54.32
2018-06-23T10:44:16.272Z,54.32
2018-06-23T10:46:44.360Z,54.89
2018-06-23T10:49:12.393Z,54.67
2018-06-23T10:51:40.439Z,55.17
2018-06-23T10:54:08.490Z,55.91
2018-06-23T10:56:36.535Z,55.60
2018-06-23T10:59:04.784Z,55.34
2018-06-23T11:01:32.836Z,55.33
2018-06-23T11:04:00.880Z,56.36
2018-06-23T11:06:28.933Z,56.27
2018-06-23T11:08:56.967Z,55.43
2018-06-23T11:11:25.029Z,55.34
2018-06-23T11:13:53.073Z,57.10
2018-06-23T11:16:21.114Z,58.34
2018-06-23T11:18:49.169Z,61.05
2018-06-23T11:21:17.680Z,60.85
2018-06-23T11:23:45.722Z,61.31
2018-06-23T11:26:13.840Z,61.62
2018-06-23T11:28:41.898Z,62.27
2018-06-23T11:31:09.968Z,62.51
2018-06-23T11:33:38.056Z,61.88
2018-06-23T11:36:06.108Z,62.58
2018-06-23T11:38:34.361Z,63.19
2018-06-23T11:41:05.908Z,63.39
2018-06-23T11:43:39.032Z,64.17
2018-06-23T11:46:07.139Z,64.48
2018-06-23T11:48:35.191Z,65.14
2018-06-23T11:51:03.396Z,64.86
2018-06-23T11:53:31.720Z,66.87
2018-06-23T11:55:59.784Z,65.77
2018-06-23T11:58:27.824Z,65.34
2018-06-23T12:00:55.979Z,65.20
2018-06-23T12:03:24.037Z,64.98
2018-06-23T12:05:52.147Z,64.62
2018-06-23T12:08:20.216Z,64.45
2018-06-23T12:10:48.266Z,64.21
2018-06-23T12:13:16.620Z,65.01
2018-06-23T12:15:44.666Z,64.72
2018-06-23T12:18:12.770Z,65.27
2018-06-23T12:20:40.821Z,65.36
2018-06-23T12:23:08.908Z,66.25
2018-06-23T12:25:37.307Z,65.90
2018-06-23T12:28:05.440Z,66.27
2018-06-23T12:30:33.567Z,66.49
2018-06-23T12:33:01.543Z,66.54
2018-06-23T12:35:29.596Z,66.89
2018-06-23T12:37:57.660Z,67.19
2018-06-23T12:40:25.692Z,67.15
2018-06-23T12:42:53.741Z,67.39
2018-06-23T12:45:21.833Z,67.61
2018-06-23T12:47:49.872Z,67.45
2018-06-23T12:50:17.900Z,67.65
2018-06-23T12:52:45.952Z,67.97
2018-06-23T12:55:14.000Z,68.04
2018-06-23T12:57:42.061Z,68.15
2018-06-23T13:00:10.112Z,68.66
2018-06-23T13:02:38.148Z,68.75
2018-06-23T13:05:06.585Z,68.47
2018-06-23T13:07:34.681Z,68.69
2018-06-23T13:10:02.735Z,69.65
2018-06-23T13:12:30.788Z,70.04
2018-06-23T13:14:58.890Z,69.81
2018-06-23T13:17:26.996Z,69.89
2018-06-23T13:19:55.044Z,69.54
2018-06-23T13:22:23.130Z,70.13
2018-06-23T13:24:51.160Z,70.09
2018-06-23T13:27:19.190Z,70.40
2018-06-23T13:29:51.104Z,70.47
2018-06-23T13:32:19.212Z,71.00
2018-06-23T13:34:47.354Z,70.82
2018-06-23T13:37:15.396Z,70.82
2018-06-23T13:39:43.518Z,70.92
2018-06-23T13:42:11.584Z,70.84
2018-06-23T13:44:39.702Z,71.04
2018-06-23T13:47:07.770Z,71.00
2018-06-23T13:49:36.013Z,71.15
2018-06-23T13:52:04.068Z,71.19
2018-06-23T13:54:32.227Z,71.46
2018-06-23T13:57:02.172Z,71.51
2018-06-23T13:59:30.226Z,70.99
2018-06-23T14:01:58.263Z,71.76
2018-06-23T14:04:26.328Z,71.94
2018-06-23T14:06:54.402Z,71.77
2018-06-23T14:09:22.461Z,72.00
2018-06-23T14:11:50.527Z,71.83
2018-06-23T14:14:18.572Z,72.06
2018-06-23T14:16:46.617Z,72.26
2018-06-23T14:19:14.691Z,71.87
2018-06-23T14:21:42.808Z,72.05
2018-06-23T14:24:10.856Z,72.09
2018-06-23T14:26:38.908Z,72.09
2018-06-23T14:29:06.980Z,72.34
2018-06-23T14:31:35.128Z,72.27
2018-06-23T14:34:03.077Z,72.56
2018-06-23T14:36:31.113Z,72.52
2018-06-23T14:38:59.156Z,72.46
2018-06-23T14:41:27.228Z,72.92
2018-06-23T14:43:55.267Z,72.35
2018-06-23T14:46:23.333Z,72.91
2018-06-23T14:48:51.384Z,72.83
2018-06-23T14:51:19.453Z,73.20
2018-06-23T14:53:47.512Z,73.12
2018-06-23T14:56:15.548Z,72.68
2018-06-23T14:58:43.681Z,72.59
2018-06-23T15:01:11.876Z,72.73
2018-06-23T15:03:39.964Z,72.70
2018-06-23T15:06:08.968Z,73.23
2018-06-23T15:08:48.800Z,73.35
2018-06-23T15:11:28.215Z,73.02
2018-06-23T15:13:56.262Z,73.07
2018-06-23T15:16:24.339Z,73.80
2018-06-23T15:18:52.395Z,73.92
2018-06-23T15:21:20.436Z,73.03
2018-06-23T15:23:48.491Z,73.38
2018-06-23T15:26:16.568Z,74.09
2018-06-23T15:28:44.651Z,73.54
2018-06-23T15:31:12.725Z,73.94
2018-06-23T15:33:41.333Z,73.35
2018-06-23T15:36:09.344Z,73.45
2018-06-23T15:38:37.396Z,73.42
2018-06-23T15:41:05.917Z,73.64
2018-06-23T15:43:34.105Z,73.36
2018-06-23T15:46:02.197Z,73.71
2018-06-23T15:48:30.338Z,74.07
2018-06-23T15:50:58.389Z,73.84
2018-06-23T15:53:26.448Z,74.47
2018-06-23T15:55:54.524Z,74.29
2018-06-23T15:58:22.545Z,74.40
2018-06-23T16:00:50.624Z,74.20
2018-06-23T16:03:18.668Z,74.24
2018-06-23T16:05:46.725Z,74.05
2018-06-23T16:08:14.774Z,74.04
2018-06-23T16:10:42.823Z,73.84
2018-06-23T16:13:10.867Z,74.08
2018-06-23T16:15:38.919Z,73.93
2018-06-23T16:18:06.982Z,74.05
2018-06-23T16:20:35.044Z,74.01
2018-06-23T16:23:03.084Z,73.65
2018-06-23T16:25:31.156Z,73.95
2018-06-23T16:27:59.224Z,73.57
2018-06-23T16:30:27.308Z,73.83
2018-06-23T16:32:55.360Z,74.00
2018-06-23T16:35:23.722Z,73.60
2018-06-23T16:37:51.453Z,73.76
2018-06-23T16:40:19.572Z,73.35
2018-06-23T16:42:47.616Z,73.73
2018-06-23T16:45:15.673Z,74.25
2018-06-23T16:47:43.720Z,73.88
2018-06-23T16:50:11.779Z,74.01
2018-06-23T16:52:39.826Z,73.86
2018-06-23T16:55:07.868Z,73.65
2018-06-23T16:57:35.903Z,74.23
2018-06-23T17:00:04.696Z,74.05
2018-06-23T17:02:32.745Z,74.21
2018-06-23T17:05:00.780Z,74.13
2018-06-23T17:07:28.832Z,74.41
2018-06-23T17:09:56.876Z,74.26
2018-06-23T17:12:24.925Z,74.45
2018-06-23T17:14:52.960Z,74.68
2018-06-23T17:17:21.024Z,74.42
2018-06-23T17:19:49.093Z,74.00
2018-06-23T17:22:17.144Z,74.42
2018-06-23T17:24:45.224Z,74.90
2018-06-23T17:27:13.294Z,74.64
2018-06-23T17:29:41.327Z,74.51
2018-06-23T17:32:09.374Z,74.36
2018-06-23T17:34:37.420Z,74.84
2018-06-23T17:37:05.590Z,75.21
2018-06-23T17:39:33.632Z,74.80
2018-06-23T17:42:01.704Z,75.06
2018-06-23T17:44:29.711Z,75.28
2018-06-23T17:46:57.772Z,74.89
2018-06-23T17:49:25.820Z,75.19
2018-06-23T17:51:53.906Z,75.13
2018-06-23T17:54:21.921Z,74.97
2018-06-23T17:56:49.969Z,75.18
2018-06-23T17:59:18.012Z,75.44
2018-06-23T18:01:46.529Z,75.42
2018-06-23T18:04:14.596Z,75.78
2018-06-23T18:06:49.396Z,75.80
2018-06-23T18:09:18.273Z,75.71
2018-06-23T18:11:46.363Z,75.86
2018-06-23T18:14:14.531Z,75.74
2018-06-23T18:16:42.632Z,76.27
2018-06-23T18:19:10.700Z,76.30
2018-06-23T18:21:38.862Z,76.26
2018-06-23T18:24:07.916Z,76.19
2018-06-23T18:26:36.084Z,76.42
2018-06-23T18:29:04.296Z,76.54
2018-06-23T18:31:32.430Z,76.26
2018-06-23T18:34:00.569Z,76.62
2018-06-23T18:36:28.708Z,76.57
2018-06-23T18:38:56.864Z,76.38
2018-06-23T18:41:25.020Z,76.26
2018-06-23T18:43:53.191Z,76.36
2018-06-23T18:46:21.315Z,76.43
2018-06-23T18:48:49.497Z,76.48
2018-06-23T18:51:17.553Z,76.95
2018-06-23T18:53:45.652Z,76.46
2018-06-23T18:56:13.752Z,76.48
2018-06-23T18:58:41.977Z,77.02
2018-06-23T19:01:10.112Z,76.72
2018-06-23T19:03:38.296Z,76.93
2018-06-23T19:06:06.620Z,76.96
2018-06-23T19:08:34.884Z,76.96
2018-06-23T19:11:03.132Z,77.00
2018-06-23T19:13:31.341Z,76.79
2018-06-23T19:15:59.448Z,76.53
2018-06-23T19:18:28.164Z,76.64
2018-06-23T19:20:56.396Z,76.96
2018-06-23T19:23:24.512Z,76.72
2018-06-23T19:25:52.552Z,76.82
2018-06-23T19:28:20.660Z,76.84
2018-06-23T19:30:48.724Z,76.88
2018-06-23T19:33:16.812Z,76.79
2018-06-23T19:35:44.936Z,76.93
2018-06-23T19:38:13.084Z,76.76
2018-06-23T19:40:41.224Z,76.69
2018-06-23T19:43:09.346Z,77.19
2018-06-23T19:45:37.464Z,77.08
2018-06-23T19:48:05.648Z,77.36
2018-06-23T19:50:33.723Z,77.13
2018-06-23T19:53:01.876Z,77.29
2018-06-23T19:55:29.996Z,77.56
2018-06-23T19:57:58.209Z,77.28
2018-06-23T20:00:28.244Z,77.40
2018-06-23T20:02:56.556Z,77.71
2018-06-23T20:05:24.724Z,77.61
2018-06-23T20:07:52.845Z,77.20
2018-06-23T20:10:21.027Z,77.65
2018-06-23T20:12:49.103Z,77.96
2018-06-23T20:15:18.397Z,77.48
2018-06-23T20:17:46.497Z,77.49
2018-06-23T20:20:14.536Z,77.72
2018-06-23T20:22:42.576Z,77.58
2018-06-23T20:25:10.628Z,77.52
2018-06-23T20:27:38.674Z,77.55
2018-06-23T20:30:06.769Z,77.66
2018-06-23T20:32:34.896Z,77.69
2018-06-23T20:35:03.879Z,77.49
2018-06-23T20:37:31.904Z,77.33
2018-06-23T20:39:59.939Z,77.48
2018-06-23T20:42:27.989Z,77.60
2018-06-23T20:44:56.256Z,77.12
2018-06-23T20:47:24.320Z,77.19
2018-06-23T20:49:52.344Z,77.64
2018-06-23T20:52:20.385Z,77.52
2018-06-23T20:54:48.476Z,77.27
2018-06-23T20:57:16.508Z,77.10
2018-06-23T20:59:44.548Z,77.33
2018-06-23T21:02:12.588Z,77.50
2018-06-23T21:04:41.059Z,76.91
2018-06-23T21:07:09.121Z,77.26
2018-06-23T21:09:37.181Z,77.01
2018-06-23T21:12:05.229Z,76.88
2018-06-23T21:14:33.265Z,77.10
2018-06-23T21:17:01.303Z,77.16
2018-06-23T21:19:29.364Z,77.13
2018-06-23T21:21:57.396Z,77.12
2018-06-23T21:24:25.429Z,76.96
2018-06-23T21:26:53.456Z,76.26
2018-06-23T21:29:21.503Z,76.69
2018-06-23T21:31:49.548Z,76.63
2018-06-23T21:34:17.607Z,76.26
2018-06-23T21:36:45.655Z,76.41
2018-06-23T21:39:13.697Z,76.28
2018-06-23T21:41:41.754Z,76.36
2018-06-23T21:44:09.791Z,76.47
2018-06-23T21:46:37.849Z,75.99
2018-06-23T21:49:06.000Z,76.18
2018-06-23T21:51:34.051Z,75.62
2018-06-23T21:54:02.103Z,75.44
2018-06-23T21:56:30.151Z,75.30
2018-06-23T21:58:58.208Z,75.80
2018-06-23T22:01:26.245Z,75.39
2018-06-23T22:03:54.281Z,75.06
2018-06-23T22:06:22.345Z,75.25
2018-06-23T22:08:50.372Z,75.29
2018-06-23T22:11:18.422Z,74.77
2018-06-23T22:13:46.456Z,74.94
2018-06-23T22:16:14.497Z,74.80
2018-06-23T22:18:42.556Z,74.49
2018-06-23T22:21:10.871Z,74.24
2018-06-23T22:23:38.912Z,74.52
2018-06-23T22:26:06.969Z,74.81
2018-06-23T22:28:35.008Z,74.35
2018-06-23T22:31:03.061Z,74.19
2018-06-23T22:33:31.100Z,74.39
2018-06-23T22:35:59.148Z,74.15
2018-06-23T22:38:27.176Z,73.84
2018-06-23T22:40:55.212Z,74.18
2018-06-23T22:43:23.257Z,73.49
2018-06-23T22:45:51.295Z,73.51
2018-06-23T22:48:19.334Z,73.91
2018-06-23T22:50:47.372Z,74.09
2018-06-23T22:53:15.408Z,73.72
2018-06-23T22:55:43.512Z,73.73
2018-06-23T22:58:11.553Z,73.79
2018-06-23T23:00:39.678Z,74.01
2018-06-23T23:03:07.705Z,73.77
2018-06-23T23:05:35.760Z,73.82
2018-06-23T23:08:04.042Z,73.81
2018-06-23T23:10:32.167Z,74.02
2018-06-23T23:13:00.206Z,74.09
2018-06-23T23:15:28.244Z,74.26
2018-06-23T23:17:56.275Z,73.99
2018-06-23T23:20:24.316Z,74.00
2018-06-23T23:22:52.352Z,74.05
2018-06-23T23:25:20.419Z,74.14
2018-06-23T23:27:48.467Z,74.22
2018-06-23T23:30:16.508Z,74.18
2018-06-23T23:32:44.565Z,74.26
2018-06-23T23:35:12.621Z,73.96
2018-06-23T23:37:40.671Z,74.35
2018-06-23T23:40:08.711Z,74.40
2018-06-23T23:42:36.773Z,73.88
2018-06-23T23:45:04.827Z,74.31
2018-06-23T23:47:32.872Z,74.55
2018-06-23T23:50:00.935Z,74.58
2018-06-23T23:52:28.984Z,74.10
2018-06-23T23:54:57.025Z,74.25
2018-06-23T23:57:25.072Z,74.14
2018-06-23T23:59:53.125Z,74.16
